createdAt,value
2018-03-16T00:00:15.890Z,77.60
2018-03-16T00:02:43.457Z,77.60
2018-03-16T00:05:10.971Z,77.60
2018-03-16T00:07:38.574Z,77.50
2018-03-16T00:10:06.069Z,77.50
2018-03-16T00:12:34.388Z,77.50
2018-03-16T00:15:02.681Z,77.60
2018-03-16T00:17:30.209Z,77.60
2018-03-16T00:19:57.716Z,77.40
2018-03-16T00:22:37.407Z,77.50
2018-03-16T00:25:04.905Z,77.40
2018-03-16T00:27:33.179Z,77.60
2018-03-16T00:30:01.465Z,77.50
2018-03-16T00:32:29.761Z,77.40
2018-03-16T00:34:57.359Z,78.00
2018-03-16T00:37:24.919Z,77.40
2018-03-16T00:39:52.425Z,77.20
2018-03-16T00:42:20.697Z,76.80
2018-03-16T00:44:48.629Z,76.80
2018-03-16T00:47:16.165Z,76.70
2018-03-16T00:49:43.669Z,76.90
2018-03-16T00:52:11.194Z,77.10
2018-03-16T00:54:39.504Z,77.00
2018-03-16T00:57:07.738Z,77.00
2018-03-16T00:59:36.025Z,77.00
2018-03-16T01:02:04.296Z,77.10
2018-03-16T01:04:32.603Z,77.30
2018-03-16T01:07:00.110Z,77.30
2018-03-16T01:09:27.628Z,77.10
2018-03-16T01:11:55.121Z,76.80
2018-03-16T01:14:22.629Z,77.00
2018-03-16T01:16:50.891Z,77.20
2018-03-16T01:19:18.420Z,76.70
2018-03-16T01:21:45.979Z,76.50
2018-03-16T01:24:13.505Z,76.50
2018-03-16T01:26:41.779Z,76.10
2018-03-16T01:29:09.401Z,76.10
2018-03-16T01:31:36.891Z,75.90
2018-03-16T01:34:04.402Z,75.70
2018-03-16T01:36:31.961Z,75.50
2018-03-16T01:38:59.477Z,75.40
2018-03-16T01:41:26.984Z,75.20
2018-03-16T01:43:54.509Z,75.20
2018-03-16T01:46:21.991Z,75.00
2018-03-16T01:48:50.281Z,74.60
2018-03-16T01:51:17.802Z,74.50
2018-03-16T01:53:45.361Z,74.50
2018-03-16T01:56:12.851Z,74.30
2018-03-16T01:58:40.415Z,74.20
2018-03-16T02:01:07.919Z,74.20
2018-03-16T02:03:35.420Z,74.10
2018-03-16T02:06:02.908Z,73.70
2018-03-16T02:08:30.438Z,73.60
2018-03-16T02:10:57.968Z,73.70
2018-03-16T02:13:25.770Z,73.40
2018-03-16T02:15:53.258Z,73.40
2018-03-16T02:18:20.759Z,73.00
2018-03-16T02:20:48.271Z,72.70
2018-03-16T02:23:15.778Z,72.70
2018-03-16T02:25:44.047Z,72.50
2018-03-16T02:28:12.298Z,72.10
2018-03-16T02:30:39.796Z,72.00
2018-03-16T02:33:07.302Z,72.40
2018-03-16T02:35:34.823Z,72.50
2018-03-16T02:38:03.395Z,72.30
2018-03-16T02:40:31.670Z,71.50
2018-03-16T02:42:59.165Z,72.00
2018-03-16T02:45:26.714Z,71.90
2018-03-16T02:47:54.979Z,71.90
2018-03-16T02:50:22.485Z,71.80
2018-03-16T02:52:50.023Z,71.80
2018-03-16T02:55:18.309Z,71.70
2018-03-16T02:57:46.572Z,71.70
2018-03-16T03:00:14.894Z,72.10
2018-03-16T03:02:42.405Z,72.00
2018-03-16T03:05:09.927Z,71.70
2018-03-16T03:07:37.564Z,71.80
2018-03-16T03:10:05.837Z,71.90
2018-03-16T03:12:33.361Z,71.90
2018-03-16T03:15:00.891Z,72.00
2018-03-16T03:17:28.408Z,71.80
2018-03-16T03:19:55.979Z,71.70
2018-03-16T03:22:23.497Z,71.60
2018-03-16T03:24:51.021Z,71.70
2018-03-16T03:27:19.308Z,71.20
2018-03-16T03:29:46.859Z,71.20
2018-03-16T03:32:15.250Z,71.40
2018-03-16T03:34:43.592Z,71.50
2018-03-16T03:37:11.083Z,71.50
2018-03-16T03:39:39.341Z,71.70
2018-03-16T03:42:06.838Z,71.80
2018-03-16T03:44:35.118Z,71.70
2018-03-16T03:47:03.397Z,71.60
2018-03-16T03:49:31.654Z,71.80
2018-03-16T03:51:59.164Z,71.70
2018-03-16T03:54:26.687Z,71.80
2018-03-16T03:56:54.217Z,71.90
2018-03-16T03:59:22.409Z,72.00
2018-03-16T04:01:49.928Z,72.00
2018-03-16T04:04:17.459Z,72.00
2018-03-16T04:06:45.016Z,72.10
2018-03-16T04:09:12.510Z,72.00
2018-03-16T04:11:40.865Z,72.10
2018-03-16T04:14:08.367Z,72.10
2018-03-16T04:16:35.881Z,72.10
2018-03-16T04:19:03.368Z,72.00
2018-03-16T04:21:31.645Z,71.90
2018-03-16T04:23:59.173Z,72.40
2018-03-16T04:26:26.670Z,71.90
2018-03-16T04:28:54.173Z,72.00
2018-03-16T04:31:21.694Z,71.80
2018-03-16T04:33:49.240Z,71.60
2018-03-16T04:36:16.747Z,72.00
2018-03-16T04:38:44.299Z,72.30
2018-03-16T04:41:11.858Z,72.10
2018-03-16T04:43:40.127Z,72.30
2018-03-16T04:46:07.622Z,72.20
2018-03-16T04:48:35.887Z,72.40
2018-03-16T04:51:04.178Z,72.00
2018-03-16T04:53:32.440Z,72.10
2018-03-16T04:56:00.935Z,72.10
2018-03-16T04:58:30.503Z,72.00
2018-03-16T05:00:58.023Z,71.90
2018-03-16T05:03:25.552Z,72.00
2018-03-16T05:05:53.108Z,72.10
2018-03-16T05:08:20.603Z,72.00
2018-03-16T05:10:48.891Z,72.00
2018-03-16T05:13:17.147Z,72.30
2018-03-16T05:15:44.769Z,72.30
2018-03-16T05:18:12.310Z,72.10
2018-03-16T05:20:39.816Z,71.70
2018-03-16T05:23:07.329Z,71.80
2018-03-16T05:25:35.597Z,71.70
2018-03-16T05:28:03.867Z,71.90
2018-03-16T05:30:32.169Z,71.90
2018-03-16T05:33:00.454Z,71.80
2018-03-16T05:35:27.996Z,71.70
2018-03-16T05:37:55.507Z,71.90
2018-03-16T05:40:22.999Z,71.80
2018-03-16T05:42:50.517Z,71.50
2018-03-16T05:45:18.012Z,71.40
2018-03-16T05:47:45.526Z,71.50
2018-03-16T05:50:13.898Z,71.40
2018-03-16T05:52:41.403Z,71.40
2018-03-16T05:55:08.895Z,71.00
2018-03-16T05:57:36.425Z,71.10
2018-03-16T06:00:03.934Z,70.90
2018-03-16T06:02:31.446Z,71.30
2018-03-16T06:04:58.931Z,71.50
2018-03-16T06:07:26.496Z,71.10
2018-03-16T06:09:53.998Z,71.00
2018-03-16T06:12:22.324Z,70.70
2018-03-16T06:14:49.826Z,70.60
2018-03-16T06:17:18.856Z,70.80
2018-03-16T06:19:47.121Z,71.00
2018-03-16T06:22:14.636Z,71.00
2018-03-16T06:24:42.258Z,70.90
2018-03-16T06:27:10.621Z,70.50
2018-03-16T06:29:38.120Z,70.50
2018-03-16T06:32:06.384Z,70.80
2018-03-16T06:34:34.655Z,70.50
2018-03-16T06:37:02.942Z,70.50
2018-03-16T06:39:31.269Z,70.00
2018-03-16T06:41:58.774Z,69.90
2018-03-16T06:44:26.270Z,69.70
2018-03-16T06:46:53.810Z,69.20
2018-03-16T06:49:21.314Z,68.90
2018-03-16T06:51:48.812Z,68.70
2018-03-16T06:54:16.320Z,68.70
2018-03-16T06:56:43.838Z,69.00
2018-03-16T06:59:11.323Z,68.70
2018-03-16T07:01:38.835Z,68.70
2018-03-16T07:04:06.335Z,68.60
2018-03-16T07:06:33.852Z,68.40
2018-03-16T07:09:01.364Z,67.90
2018-03-16T07:11:28.867Z,68.00
2018-03-16T07:13:56.530Z,67.50
2018-03-16T07:16:24.019Z,67.30
2018-03-16T07:18:51.547Z,67.00
2018-03-16T07:21:19.820Z,67.50
2018-03-16T07:23:48.115Z,67.50
2018-03-16T07:26:16.377Z,67.20
2018-03-16T07:28:44.645Z,66.80
2018-03-16T07:31:12.176Z,66.60
2018-03-16T07:33:39.695Z,66.60
2018-03-16T07:36:07.972Z,66.80
2018-03-16T07:38:36.244Z,66.50
2018-03-16T07:41:04.504Z,66.40
2018-03-16T07:43:32.012Z,66.40
2018-03-16T07:46:03.130Z,66.60
2018-03-16T07:48:31.410Z,66.90
2018-03-16T07:50:58.890Z,66.30
2018-03-16T07:53:27.173Z,66.10
2018-03-16T07:55:55.444Z,65.80
2018-03-16T07:58:23.001Z,65.80
2018-03-16T08:00:51.469Z,66.40
2018-03-16T08:03:18.976Z,65.80
2018-03-16T08:05:47.276Z,66.20
2018-03-16T08:08:14.970Z,66.10
2018-03-16T08:10:42.455Z,66.00
2018-03-16T08:13:10.072Z,66.10
2018-03-16T08:15:37.580Z,66.10
2018-03-16T08:18:05.097Z,65.50
2018-03-16T08:20:32.612Z,65.60
2018-03-16T08:23:00.106Z,65.50
2018-03-16T08:25:27.595Z,65.10
2018-03-16T08:27:55.620Z,64.80
2018-03-16T08:30:23.119Z,64.90
2018-03-16T08:32:50.627Z,64.90
2018-03-16T08:35:18.134Z,64.80
2018-03-16T08:37:45.674Z,64.70
2018-03-16T08:40:13.465Z,64.70
2018-03-16T08:42:41.029Z,64.90
2018-03-16T08:45:09.278Z,64.70
2018-03-16T08:47:36.787Z,64.70
2018-03-16T08:50:04.325Z,64.20
2018-03-16T08:52:32.571Z,63.80
2018-03-16T08:55:00.076Z,63.80
2018-03-16T08:57:28.333Z,63.80
2018-03-16T08:59:56.641Z,64.20
2018-03-16T09:02:24.140Z,64.20
2018-03-16T09:04:51.679Z,64.60
2018-03-16T09:07:19.212Z,64.90
2018-03-16T09:09:46.848Z,64.80
2018-03-16T09:12:14.382Z,64.60
2018-03-16T09:14:41.899Z,64.20
2018-03-16T09:17:09.397Z,64.10
2018-03-16T09:19:36.904Z,64.60
2018-03-16T09:22:04.382Z,64.80
2018-03-16T09:24:32.078Z,64.70
2018-03-16T09:27:00.408Z,64.10
2018-03-16T09:29:27.916Z,64.00
2018-03-16T09:31:56.163Z,65.10
2018-03-16T09:34:23.776Z,65.10
2018-03-16T09:36:51.310Z,65.10
2018-03-16T09:39:18.828Z,65.60
2018-03-16T09:41:46.312Z,66.50
2018-03-16T09:44:13.819Z,66.60
2018-03-16T09:46:42.101Z,66.90
2018-03-16T09:49:10.409Z,67.40
2018-03-16T09:51:37.932Z,68.00
2018-03-16T09:54:06.243Z,67.00
2018-03-16T09:56:34.516Z,66.70
2018-03-16T09:59:02.012Z,66.60
2018-03-16T10:01:29.949Z,66.10
2018-03-16T10:03:57.446Z,65.70
2018-03-16T10:06:24.932Z,65.70
2018-03-16T10:08:52.460Z,65.40
2018-03-16T10:11:19.993Z,65.20
2018-03-16T10:13:47.502Z,65.00
2018-03-16T10:16:15.036Z,65.00
2018-03-16T10:18:42.648Z,64.80
2018-03-16T10:21:10.182Z,64.60
2018-03-16T10:23:37.681Z,64.40
2018-03-16T10:26:05.818Z,64.20
2018-03-16T10:28:33.310Z,65.50
2018-03-16T10:31:00.797Z,65.20
2018-03-16T10:33:28.315Z,65.60
2018-03-16T10:35:55.844Z,65.40
2018-03-16T10:38:24.106Z,64.80
2018-03-16T10:40:52.362Z,64.80
2018-03-16T10:43:19.873Z,64.90
2018-03-16T10:45:48.142Z,64.80
2018-03-16T10:48:16.469Z,64.80
2018-03-16T10:50:44.268Z,64.70
2018-03-16T10:53:11.768Z,64.80
2018-03-16T10:55:39.285Z,65.00
2018-03-16T10:58:08.489Z,65.00
2018-03-16T11:00:41.612Z,64.60
2018-03-16T11:03:14.788Z,64.40
2018-03-16T11:05:48.786Z,64.60
2018-03-16T11:08:22.159Z,64.50
2018-03-16T11:10:49.668Z,64.70
2018-03-16T11:13:17.940Z,64.40
2018-03-16T11:15:46.264Z,64.30
2018-03-16T11:18:13.804Z,63.80
2018-03-16T11:20:42.166Z,64.50
2018-03-16T11:23:09.742Z,64.50
2018-03-16T11:25:37.352Z,65.00
2018-03-16T11:28:04.856Z,64.90
2018-03-16T11:30:32.995Z,65.20
2018-03-16T11:33:00.555Z,65.60
2018-03-16T11:35:28.073Z,64.90
2018-03-16T11:37:56.336Z,65.10
2018-03-16T11:40:23.866Z,64.90
2018-03-16T11:42:51.378Z,65.10
2018-03-16T11:45:18.907Z,65.10
2018-03-16T11:47:46.428Z,64.80
2018-03-16T11:50:14.733Z,66.70
2018-03-16T11:52:42.236Z,66.70
2018-03-16T11:55:10.368Z,66.30
2018-03-16T11:57:37.886Z,67.00
2018-03-16T12:02:28.446Z,69.00
2018-03-16T12:04:55.956Z,68.30
2018-03-16T12:07:23.462Z,68.00
2018-03-16T12:09:51.970Z,68.00
2018-03-16T12:12:19.483Z,68.00
2018-03-16T12:14:46.988Z,69.20
2018-03-16T12:17:14.725Z,69.00
2018-03-16T12:19:42.239Z,68.90
2018-03-16T12:22:09.728Z,68.60
2018-03-16T12:24:37.236Z,68.50
2018-03-16T12:27:05.500Z,68.60
2018-03-16T12:29:33.884Z,69.30
2018-03-16T12:32:01.369Z,68.80
2018-03-16T12:34:28.861Z,68.40
2018-03-16T12:36:56.430Z,68.90
2018-03-16T12:39:23.950Z,68.00
2018-03-16T12:41:52.252Z,67.80
2018-03-16T12:44:19.780Z,67.80
2018-03-16T12:46:47.275Z,67.90
2018-03-16T12:49:14.764Z,67.10
2018-03-16T12:51:42.433Z,68.20
2018-03-16T12:54:09.826Z,67.50
2018-03-16T12:56:37.350Z,68.00
2018-03-16T12:59:04.837Z,68.00
2018-03-16T13:01:32.340Z,67.80
2018-03-16T13:03:59.849Z,68.70
2018-03-16T13:06:27.352Z,68.40
2018-03-16T13:08:55.606Z,67.90
2018-03-16T13:11:23.114Z,67.80
2018-03-16T13:13:50.769Z,67.80
2018-03-16T13:16:19.046Z,67.80
2018-03-16T13:18:47.298Z,67.30
2018-03-16T13:21:16.645Z,67.30
2018-03-16T13:23:44.248Z,67.30
2018-03-16T13:26:11.882Z,66.20
2018-03-16T13:28:39.398Z,67.20
2018-03-16T13:31:06.978Z,67.10
2018-03-16T13:33:34.523Z,66.40
2018-03-16T13:36:02.065Z,66.60
2018-03-16T13:38:29.610Z,67.20
2018-03-16T13:40:57.132Z,66.80
2018-03-16T13:43:25.418Z,67.20
2018-03-16T13:45:53.061Z,67.00
2018-03-16T13:48:20.608Z,66.50
2018-03-16T13:50:48.144Z,66.90
2018-03-16T13:53:15.679Z,67.80
2018-03-16T13:55:43.964Z,69.00
2018-03-16T13:58:12.284Z,69.80
2018-03-16T14:00:39.794Z,69.70
2018-03-16T14:03:07.378Z,69.20
2018-03-16T14:05:35.650Z,69.40
2018-03-16T14:08:03.976Z,69.00
2018-03-16T14:10:31.602Z,69.00
2018-03-16T14:12:59.882Z,68.90
2018-03-16T14:15:28.143Z,70.10
2018-03-16T14:17:55.716Z,70.10
2018-03-16T14:20:24.026Z,69.80
2018-03-16T14:22:52.336Z,69.50
2018-03-16T14:25:19.864Z,69.50
2018-03-16T14:27:47.371Z,68.90
2018-03-16T14:30:14.881Z,68.50
2018-03-16T14:32:43.150Z,70.70
2018-03-16T14:35:11.404Z,70.60
2018-03-16T14:37:38.946Z,71.30
2018-03-16T14:40:06.498Z,71.80
2018-03-16T14:42:34.046Z,71.50
2018-03-16T14:45:02.314Z,72.30
2018-03-16T14:47:30.610Z,71.60
2018-03-16T14:49:58.900Z,71.20
2018-03-16T14:52:26.398Z,71.20
2018-03-16T14:54:53.925Z,73.00
2018-03-16T14:57:21.450Z,71.00
2018-03-16T14:59:48.998Z,70.10
2018-03-16T15:02:16.542Z,70.60
2018-03-16T15:04:44.054Z,70.90
2018-03-16T15:07:11.612Z,69.80
2018-03-16T15:09:39.230Z,69.60
2018-03-16T15:12:06.824Z,69.50
2018-03-16T15:14:34.390Z,69.10
2018-03-16T15:17:03.862Z,67.20
2018-03-16T15:19:31.375Z,67.10
2018-03-16T15:21:58.964Z,68.40
2018-03-16T15:24:27.282Z,67.40
2018-03-16T15:26:54.842Z,67.40
2018-03-16T15:29:22.415Z,68.00
2018-03-16T15:31:50.139Z,67.20
2018-03-16T15:34:18.434Z,64.20
2018-03-16T15:36:45.923Z,64.10
2018-03-16T15:39:13.440Z,63.50
2018-03-16T15:41:41.080Z,63.80
2018-03-16T15:44:08.596Z,61.80
2018-03-16T15:46:36.114Z,61.10
2018-03-16T15:49:03.634Z,60.30
2018-03-16T15:51:31.164Z,60.40
2018-03-16T15:53:58.720Z,59.80
2018-03-16T15:56:26.997Z,59.30
2018-03-16T15:58:55.300Z,59.60
2018-03-16T16:01:22.826Z,59.60
2018-03-16T16:03:50.342Z,59.60
2018-03-16T16:06:17.862Z,58.90
2018-03-16T16:08:46.152Z,58.50
2018-03-16T16:11:13.649Z,58.50
2018-03-16T16:13:41.171Z,58.80
2018-03-16T16:16:08.678Z,58.40
2018-03-16T16:18:36.329Z,58.10
2018-03-16T16:21:04.332Z,59.00
2018-03-16T16:23:31.871Z,59.10
2018-03-16T16:25:59.518Z,58.80
2018-03-16T16:28:27.810Z,58.80
2018-03-16T16:30:56.142Z,59.50
2018-03-16T16:33:23.634Z,59.40
2018-03-16T16:35:51.125Z,60.90
2018-03-16T16:38:18.794Z,59.60
2018-03-16T16:40:47.228Z,60.40
2018-03-16T16:43:14.713Z,60.10
2018-03-16T16:45:43.037Z,62.80
2018-03-16T16:48:10.546Z,62.70
2018-03-16T16:50:38.044Z,60.80
2018-03-16T16:53:05.930Z,61.70
2018-03-16T16:55:33.518Z,60.00
2018-03-16T16:58:01.022Z,61.50
2018-03-16T17:00:28.600Z,60.00
2018-03-16T17:02:56.880Z,60.80
2018-03-16T17:05:24.406Z,60.80
2018-03-16T17:07:52.618Z,59.60
2018-03-16T17:10:21.408Z,59.50
2018-03-16T17:12:49.666Z,58.90
2018-03-16T17:15:17.189Z,58.80
2018-03-16T17:17:44.734Z,59.40
2018-03-16T17:20:12.386Z,58.30
2018-03-16T17:22:40.665Z,59.10
2018-03-16T17:25:09.022Z,58.10
2018-03-16T17:27:36.516Z,58.00
2018-03-16T17:30:04.782Z,59.00
2018-03-16T17:32:33.109Z,59.20
2018-03-16T17:35:03.199Z,58.90
2018-03-16T17:37:31.669Z,58.80
2018-03-16T17:40:00.049Z,60.10
2018-03-16T17:42:27.602Z,60.10
2018-03-16T17:44:55.118Z,59.30
2018-03-16T17:47:22.634Z,59.40
2018-03-16T17:49:50.981Z,59.30
2018-03-16T17:52:18.476Z,59.30
2018-03-16T17:54:45.977Z,58.80
2018-03-16T17:57:14.126Z,58.60
2018-03-16T17:59:41.632Z,59.40
2018-03-16T18:02:09.178Z,58.70
2018-03-16T18:04:37.451Z,58.20
2018-03-16T18:07:05.770Z,57.80
2018-03-16T18:09:34.013Z,57.80
2018-03-16T18:12:02.274Z,58.30
2018-03-16T18:14:30.658Z,58.20
2018-03-16T18:16:58.254Z,58.10
2018-03-16T18:19:25.835Z,58.70
2018-03-16T18:21:53.342Z,58.90
2018-03-16T18:24:20.832Z,58.10
2018-03-16T18:26:49.111Z,57.00
2018-03-16T18:29:17.378Z,56.70
2018-03-16T18:31:44.991Z,56.60
2018-03-16T18:34:13.380Z,56.50
2018-03-16T18:36:40.888Z,56.80
2018-03-16T18:39:09.884Z,56.00
2018-03-16T18:41:37.386Z,56.00
2018-03-16T18:44:04.987Z,56.10
2018-03-16T18:46:32.583Z,56.00
2018-03-16T18:49:00.081Z,57.10
2018-03-16T18:51:27.834Z,57.10
2018-03-16T18:53:56.149Z,57.80
2018-03-16T18:56:23.672Z,57.80
2018-03-16T18:58:51.977Z,59.70
2018-03-16T19:01:19.482Z,59.50
2018-03-16T19:03:47.067Z,61.30
2018-03-16T19:06:14.595Z,60.10
2018-03-16T19:08:42.107Z,59.60
2018-03-16T19:11:10.554Z,60.50
2018-03-16T19:13:38.070Z,60.40
2018-03-16T19:16:05.582Z,59.80
2018-03-16T19:18:33.063Z,58.60
2018-03-16T19:21:00.582Z,57.90
2018-03-16T19:23:28.158Z,57.60
2018-03-16T19:25:55.708Z,58.20
2018-03-16T19:28:23.210Z,57.50
2018-03-16T19:30:50.726Z,58.10
2018-03-16T19:33:18.221Z,57.70
2018-03-16T19:35:45.741Z,57.80
2018-03-16T19:38:13.259Z,57.20
2018-03-16T19:40:40.836Z,56.20
2018-03-16T19:43:08.343Z,56.30
2018-03-16T19:45:35.842Z,56.00
2018-03-16T19:48:03.370Z,55.70
2018-03-16T19:50:30.893Z,55.40
2018-03-16T19:52:58.457Z,55.30
2018-03-16T19:55:26.833Z,55.20
2018-03-16T19:57:55.119Z,55.00
2018-03-16T20:00:22.679Z,55.00
2018-03-16T20:02:50.326Z,54.00
2018-03-16T20:05:17.917Z,53.90
2018-03-16T20:07:45.793Z,53.70
2018-03-16T20:10:14.343Z,54.10
2018-03-16T20:12:41.957Z,54.00
2018-03-16T20:15:11.055Z,53.60
2018-03-16T20:17:39.420Z,52.60
2018-03-16T20:20:06.934Z,52.60
2018-03-16T20:22:34.470Z,52.60
2018-03-16T20:25:02.893Z,52.60
2018-03-16T20:27:31.185Z,52.60
2018-03-16T20:29:58.687Z,52.20
2018-03-16T20:32:26.973Z,52.20
2018-03-16T20:34:55.250Z,52.00
2018-03-16T20:37:23.537Z,52.10
2018-03-16T20:39:51.041Z,51.60
2018-03-16T20:42:18.896Z,51.40
2018-03-16T20:44:46.414Z,51.60
2018-03-16T20:47:13.945Z,51.80
2018-03-16T20:49:41.599Z,52.00
2018-03-16T20:52:09.108Z,51.80
2018-03-16T20:54:36.821Z,51.50
2018-03-16T20:57:04.330Z,51.40
2018-03-16T20:59:31.856Z,51.20
2018-03-16T21:01:59.378Z,51.20
2018-03-16T21:04:26.934Z,51.30
2018-03-16T21:06:54.448Z,50.70
2018-03-16T21:09:21.971Z,50.70
2018-03-16T21:11:49.489Z,50.60
2018-03-16T21:14:17.081Z,50.80
2018-03-16T21:16:44.573Z,50.80
2018-03-16T21:19:12.885Z,50.80
2018-03-16T21:21:40.420Z,50.80
2018-03-16T21:24:08.779Z,50.30
2018-03-16T21:26:36.307Z,50.30
2018-03-16T21:29:03.841Z,50.30
2018-03-16T21:31:32.161Z,50.50
2018-03-16T21:33:59.741Z,50.50
2018-03-16T21:36:28.157Z,50.30
2018-03-16T21:38:55.707Z,50.30
2018-03-16T21:41:23.971Z,50.00
2018-03-16T21:43:52.092Z,50.40
2018-03-16T21:46:19.715Z,50.10
2018-03-16T21:48:47.289Z,49.70
2018-03-16T21:51:14.837Z,49.30
2018-03-16T21:53:42.373Z,49.60
2018-03-16T21:56:09.869Z,49.50
2018-03-16T21:58:37.406Z,50.00
2018-03-16T22:01:05.841Z,50.00
2018-03-16T22:03:34.108Z,49.90
2018-03-16T22:06:01.639Z,49.90
2018-03-16T22:08:29.343Z,49.80
2018-03-16T22:10:57.721Z,50.50
2018-03-16T22:13:25.235Z,50.20
2018-03-16T22:15:52.854Z,50.60
2018-03-16T22:18:20.403Z,50.00
2018-03-16T22:20:47.945Z,50.70
2018-03-16T22:23:15.443Z,50.30
2018-03-16T22:25:42.971Z,49.90
2018-03-16T22:28:10.525Z,49.70
2018-03-16T22:30:38.037Z,50.20
2018-03-16T22:33:06.330Z,49.60
2018-03-16T22:35:36.518Z,49.70
2018-03-16T22:38:04.024Z,49.50
2018-03-16T22:40:32.359Z,49.60
2018-03-16T22:42:59.855Z,49.50
2018-03-16T22:45:28.130Z,49.80
2018-03-16T22:47:56.614Z,49.60
2018-03-16T22:50:24.113Z,49.60
2018-03-16T22:52:51.889Z,49.30
2018-03-16T22:55:20.055Z,49.40
2018-03-16T22:57:48.351Z,49.40
2018-03-16T23:00:19.976Z,49.40
2018-03-16T23:02:48.259Z,49.80
2018-03-16T23:05:16.543Z,49.60
2018-03-16T23:07:44.839Z,49.50
2018-03-16T23:10:12.981Z,49.50
2018-03-16T23:12:40.510Z,49.90
2018-03-16T23:15:08.049Z,49.90
2018-03-16T23:17:35.586Z,49.50
2018-03-16T23:20:04.103Z,49.10
2018-03-16T23:22:31.658Z,49.00
2018-03-16T23:24:59.139Z,48.50
2018-03-16T23:27:26.726Z,48.40
2018-03-16T23:29:54.256Z,48.70
2018-03-16T23:32:21.792Z,48.70
2018-03-16T23:34:50.045Z,48.10
2018-03-16T23:37:18.327Z,48.10
2018-03-16T23:39:45.992Z,48.00
2018-03-16T23:42:13.494Z,48.10
2018-03-16T23:44:41.751Z,48.10
2018-03-16T23:47:10.043Z,47.80
2018-03-16T23:49:38.306Z,47.80
2018-03-16T23:52:05.818Z,47.70
2018-03-16T23:54:34.944Z,47.50
2018-03-16T23:57:02.468Z,47.50
2018-03-16T23:59:29.975Z,47.50
